createdAt,value
2018-04-23T00:00:25.575Z,15.90
2018-04-23T00:01:28.141Z,15.80
2018-04-23T00:03:38.618Z,15.80
2018-04-23T00:04:41.911Z,15.80
2018-04-23T00:05:44.429Z,15.80
2018-04-23T00:06:46.955Z,15.80
2018-04-23T00:07:49.508Z,15.80
2018-04-23T00:08:52.040Z,15.80
2018-04-23T00:09:54.565Z,15.60
2018-04-23T00:10:57.144Z,15.60
2018-04-23T00:11:59.671Z,15.60
2018-04-23T00:13:02.197Z,15.60
2018-04-23T00:14:04.728Z,15.60
2018-04-23T00:15:07.291Z,15.60
2018-04-23T00:16:09.807Z,15.60
2018-04-23T00:17:12.359Z,15.60
2018-04-23T00:18:14.881Z,15.50
2018-04-23T00:19:17.397Z,15.50
2018-04-23T00:20:19.960Z,15.40
2018-04-23T00:21:22.517Z,15.40
2018-04-23T00:22:25.046Z,15.40
2018-04-23T00:23:27.569Z,15.40
2018-04-23T00:24:30.093Z,15.40
2018-04-23T00:25:32.616Z,15.50
2018-04-23T00:26:35.943Z,15.40
2018-04-23T00:27:38.476Z,15.40
2018-04-23T00:28:41.755Z,15.20
2018-04-23T00:29:45.054Z,15.30
2018-04-23T00:30:47.585Z,15.30
2018-04-23T00:31:50.147Z,15.30
2018-04-23T00:32:52.714Z,15.30
2018-04-23T00:33:55.245Z,15.30
2018-04-23T00:34:57.769Z,15.40
2018-04-23T00:36:01.057Z,15.40
2018-04-23T00:37:04.382Z,15.40
2018-04-23T00:38:06.911Z,15.40
2018-04-23T00:39:09.447Z,15.30
2018-04-23T00:40:11.973Z,15.30
2018-04-23T00:41:14.519Z,15.30
2018-04-23T00:42:17.040Z,15.30
2018-04-23T00:43:19.602Z,15.20
2018-04-23T00:44:22.117Z,15.20
2018-04-23T00:45:24.639Z,15.20
2018-04-23T00:46:27.155Z,15.20
2018-04-23T00:47:29.720Z,15.20
2018-04-23T00:48:32.249Z,15.20
2018-04-23T00:49:34.775Z,15.20
2018-04-23T00:50:37.295Z,15.20
2018-04-23T00:51:40.584Z,15.10
2018-04-23T00:52:43.153Z,15.10
2018-04-23T00:53:46.444Z,15.10
2018-04-23T00:54:49.004Z,15.10
2018-04-23T00:55:52.295Z,15.00
2018-04-23T00:56:54.816Z,15.00
2018-04-23T00:57:57.332Z,15.00
2018-04-23T00:58:59.900Z,15.10
2018-04-23T01:00:02.431Z,14.90
2018-04-23T01:01:04.952Z,14.80
2018-04-23T01:02:07.479Z,14.80
2018-04-23T01:03:10.010Z,14.80
2018-04-23T01:04:12.557Z,14.80
2018-04-23T01:05:15.103Z,14.70
2018-04-23T01:06:17.624Z,14.70
2018-04-23T01:07:20.150Z,14.80
2018-04-23T01:08:22.675Z,14.80
2018-04-23T01:09:25.992Z,14.80
2018-04-23T01:10:28.521Z,14.80
2018-04-23T01:11:31.817Z,14.70
2018-04-23T01:12:34.336Z,14.70
2018-04-23T01:13:36.861Z,14.70
2018-04-23T01:14:39.431Z,14.70
2018-04-23T01:15:41.949Z,14.70
2018-04-23T01:16:44.490Z,14.70
2018-04-23T01:17:47.003Z,14.70
2018-04-23T01:18:50.283Z,14.70
2018-04-23T01:19:53.605Z,14.70
2018-04-23T01:20:56.168Z,14.70
2018-04-23T01:21:58.693Z,14.70
2018-04-23T01:23:02.031Z,14.70
2018-04-23T01:24:04.598Z,14.70
2018-04-23T01:25:07.145Z,14.70
2018-04-23T01:26:09.671Z,14.60
2018-04-23T01:27:12.197Z,14.50
2018-04-23T01:28:14.719Z,14.50
2018-04-23T01:29:18.049Z,14.50
2018-04-23T01:30:20.584Z,14.50
2018-04-23T01:31:23.140Z,14.50
2018-04-23T01:32:25.680Z,14.40
2018-04-23T01:33:28.230Z,14.30
2018-04-23T01:34:30.795Z,14.30
2018-04-23T01:35:33.316Z,14.30
2018-04-23T01:36:35.843Z,14.30
2018-04-23T01:37:38.400Z,14.30
2018-04-23T01:38:40.934Z,14.30
2018-04-23T01:39:43.488Z,14.40
2018-04-23T01:40:46.008Z,14.40
2018-04-23T01:41:48.537Z,14.40
2018-04-23T01:42:51.052Z,14.40
2018-04-23T01:43:54.341Z,14.40
2018-04-23T01:44:57.676Z,14.40
2018-04-23T01:46:00.200Z,14.40
2018-04-23T01:47:03.487Z,14.40
2018-04-23T01:48:06.009Z,14.40
2018-04-23T01:49:08.544Z,14.30
2018-04-23T01:50:11.114Z,14.30
2018-04-23T01:51:13.640Z,14.30
2018-04-23T01:52:16.932Z,14.30
2018-04-23T01:53:20.225Z,14.30
2018-04-23T01:54:22.783Z,14.30
2018-04-23T01:55:26.071Z,14.10
2018-04-23T01:56:28.659Z,14.10
2018-04-23T01:57:31.183Z,14.10
2018-04-23T01:58:33.704Z,14.00
2018-04-23T01:59:36.225Z,13.90
2018-04-23T02:00:39.548Z,14.10
2018-04-23T02:01:42.103Z,14.00
2018-04-23T02:02:44.629Z,14.10
2018-04-23T02:03:47.156Z,14.20
2018-04-23T02:04:49.721Z,14.10
2018-04-23T02:05:52.243Z,14.20
2018-04-23T02:06:55.532Z,14.20
2018-04-23T02:07:58.821Z,14.20
2018-04-23T02:09:01.348Z,14.20
2018-04-23T02:10:03.921Z,14.30
2018-04-23T02:11:06.456Z,14.30
2018-04-23T02:12:08.989Z,14.30
2018-04-23T02:13:11.515Z,14.30
2018-04-23T02:14:14.052Z,14.30
2018-04-23T02:15:16.622Z,14.30
2018-04-23T02:16:19.157Z,14.30
2018-04-23T02:17:21.684Z,14.30
2018-04-23T02:18:24.216Z,14.30
2018-04-23T02:19:26.738Z,14.10
2018-04-23T02:20:30.068Z,14.10
2018-04-23T02:21:32.599Z,14.10
2018-04-23T02:22:35.131Z,14.20
2018-04-23T02:23:37.696Z,14.20
2018-04-23T02:24:40.223Z,14.10
2018-04-23T02:25:42.760Z,14.10
2018-04-23T02:26:46.059Z,14.20
2018-04-23T02:27:48.583Z,14.20
2018-04-23T02:28:51.162Z,14.30
2018-04-23T02:29:54.456Z,14.30
2018-04-23T02:30:57.749Z,14.40
2018-04-23T02:32:00.286Z,14.40
2018-04-23T02:33:02.820Z,14.50
2018-04-23T02:34:05.389Z,14.50
2018-04-23T02:35:07.922Z,14.50
2018-04-23T02:36:10.456Z,14.50
2018-04-23T02:37:13.753Z,14.40
2018-04-23T02:38:17.039Z,14.40
2018-04-23T02:39:20.375Z,14.30
2018-04-23T02:40:22.924Z,14.30
2018-04-23T02:41:25.458Z,14.40
2018-04-23T02:42:28.745Z,14.40
2018-04-23T02:43:32.029Z,14.50
2018-04-23T02:44:34.601Z,14.50
2018-04-23T02:45:37.135Z,14.50
2018-04-23T02:46:39.677Z,14.60
2018-04-23T02:47:42.203Z,14.50
2018-04-23T02:48:44.730Z,14.50
2018-04-23T02:49:47.295Z,14.60
2018-04-23T02:50:49.824Z,14.60
2018-04-23T02:51:52.361Z,14.60
2018-04-23T02:52:54.900Z,14.60
2018-04-23T02:53:57.466Z,14.60
2018-04-23T02:55:00.001Z,14.60
2018-04-23T02:56:02.530Z,14.50
2018-04-23T02:57:05.052Z,14.30
2018-04-23T02:58:07.609Z,14.50
2018-04-23T02:59:10.199Z,14.50
2018-04-23T03:00:12.720Z,14.60
2018-04-23T03:01:15.247Z,14.50
2018-04-23T03:02:18.546Z,14.40
2018-04-23T03:03:21.080Z,14.40
2018-04-23T03:04:23.644Z,14.50
2018-04-23T03:05:26.173Z,14.70
2018-04-23T03:06:28.695Z,14.80
2018-04-23T03:07:32.006Z,15.00
2018-04-23T03:08:34.572Z,15.00
2018-04-23T03:09:37.109Z,15.10
2018-04-23T03:10:40.409Z,15.20
2018-04-23T03:11:42.944Z,15.20
2018-04-23T03:12:45.506Z,15.20
2018-04-23T03:13:48.075Z,15.20
2018-04-23T03:14:51.371Z,15.30
2018-04-23T03:15:54.674Z,15.30
2018-04-23T03:16:57.203Z,15.30
2018-04-23T03:17:59.718Z,15.30
2018-04-23T03:19:02.299Z,15.30
2018-04-23T03:20:04.831Z,15.30
2018-04-23T03:21:08.126Z,15.30
2018-04-23T03:22:10.659Z,15.30
2018-04-23T03:23:13.194Z,15.30
2018-04-23T03:24:15.768Z,15.20
2018-04-23T03:25:18.334Z,15.20
2018-04-23T03:26:20.863Z,15.20
2018-04-23T03:27:23.412Z,15.10
2018-04-23T03:28:26.699Z,15.00
2018-04-23T03:29:29.983Z,15.00
2018-04-23T03:30:33.308Z,14.90
2018-04-23T03:31:35.839Z,14.90
2018-04-23T03:32:38.376Z,14.90
2018-04-23T03:33:40.908Z,14.90
2018-04-23T03:34:44.212Z,14.80
2018-04-23T03:35:46.775Z,14.80
2018-04-23T03:36:49.297Z,14.80
2018-04-23T03:37:51.826Z,14.90
2018-04-23T03:38:54.357Z,15.00
2018-04-23T03:39:56.885Z,15.00
2018-04-23T03:40:59.451Z,15.10
2018-04-23T03:42:02.008Z,15.10
2018-04-23T03:43:05.307Z,15.10
2018-04-23T03:44:07.836Z,15.10
2018-04-23T03:45:10.408Z,15.10
2018-04-23T03:46:12.936Z,15.10
2018-04-23T03:47:15.472Z,15.20
2018-04-23T03:48:18.006Z,15.20
2018-04-23T03:49:20.531Z,15.30
2018-04-23T03:50:23.123Z,15.40
2018-04-23T03:51:25.647Z,15.40
2018-04-23T03:52:28.176Z,15.30
2018-04-23T03:53:30.696Z,15.30
2018-04-23T03:54:33.228Z,15.40
2018-04-23T03:55:35.776Z,15.30
2018-04-23T03:56:39.064Z,15.40
2018-04-23T03:57:42.434Z,15.30
2018-04-23T03:58:44.923Z,15.30
2018-04-23T03:59:48.246Z,15.20
2018-04-23T04:00:50.773Z,15.20
2018-04-23T04:01:54.077Z,15.10
2018-04-23T04:02:56.604Z,15.10
2018-04-23T04:03:59.164Z,15.10
2018-04-23T04:05:01.692Z,15.00
2018-04-23T04:06:04.223Z,15.00
2018-04-23T04:07:06.810Z,15.00
2018-04-23T04:08:09.362Z,15.10
2018-04-23T04:09:11.893Z,15.10
2018-04-23T04:10:14.412Z,15.00
2018-04-23T04:11:16.937Z,15.00
2018-04-23T04:12:31.537Z,15.00
2018-04-23T04:13:45.936Z,15.00
2018-04-23T04:15:00.414Z,15.00
2018-04-23T04:16:14.865Z,14.90
2018-04-23T04:17:17.425Z,14.90
2018-04-23T04:18:40.705Z,14.80
2018-04-23T04:19:43.244Z,14.80
2018-04-23T04:20:46.620Z,14.80
2018-04-23T04:21:49.200Z,14.70
2018-04-23T04:22:51.757Z,14.70
2018-04-23T04:23:54.292Z,14.70
2018-04-23T04:24:56.821Z,14.70
2018-04-23T04:25:59.357Z,14.70
2018-04-23T04:27:01.928Z,14.70
2018-04-23T04:28:04.467Z,14.60
2018-04-23T04:29:07.756Z,14.70
2018-04-23T04:30:11.057Z,14.70
2018-04-23T04:31:13.585Z,14.70
2018-04-23T04:32:16.156Z,14.80
2018-04-23T04:33:18.696Z,14.80
2018-04-23T04:34:21.220Z,14.80
2018-04-23T04:35:23.765Z,14.80
2018-04-23T04:36:27.058Z,14.80
2018-04-23T04:37:29.632Z,14.80
2018-04-23T04:38:32.156Z,14.90
2018-04-23T04:39:34.684Z,14.90
2018-04-23T04:40:37.261Z,15.00
2018-04-23T04:41:39.824Z,15.10
2018-04-23T04:42:42.354Z,15.10
2018-04-23T04:43:45.646Z,15.10
2018-04-23T04:44:48.188Z,15.10
2018-04-23T04:45:50.752Z,15.10
2018-04-23T04:46:53.277Z,15.10
2018-04-23T04:47:55.807Z,15.10
2018-04-23T04:48:59.103Z,15.10
2018-04-23T04:50:01.667Z,15.10
2018-04-23T04:51:04.194Z,15.20
2018-04-23T04:52:06.723Z,15.20
2018-04-23T04:53:09.260Z,15.30
2018-04-23T04:54:11.794Z,15.30
2018-04-23T04:55:14.356Z,15.30
2018-04-23T04:56:16.881Z,15.30
2018-04-23T04:57:19.415Z,15.40
2018-04-23T04:58:22.707Z,15.30
2018-04-23T04:59:25.266Z,15.20
2018-04-23T05:00:28.561Z,15.30
2018-04-23T05:01:31.087Z,15.20
2018-04-23T05:02:33.656Z,15.20
2018-04-23T05:03:36.187Z,15.20
2018-04-23T05:04:38.728Z,15.20
2018-04-23T05:05:41.274Z,15.20
2018-04-23T05:06:44.580Z,15.20
2018-04-23T05:07:47.143Z,15.20
2018-04-23T05:08:49.677Z,15.20
2018-04-23T05:09:52.205Z,15.20
2018-04-23T05:10:54.748Z,15.30
2018-04-23T05:11:57.273Z,15.20
2018-04-23T05:12:59.861Z,15.10
2018-04-23T05:14:03.153Z,15.00
2018-04-23T05:15:05.700Z,15.00
2018-04-23T05:16:09.009Z,15.10
2018-04-23T05:17:11.539Z,15.00
2018-04-23T05:18:14.096Z,15.00
2018-04-23T05:19:16.620Z,15.00
2018-04-23T05:20:19.155Z,15.00
2018-04-23T05:21:22.476Z,15.10
2018-04-23T05:22:25.004Z,15.00
2018-04-23T05:23:28.303Z,15.10
2018-04-23T05:24:30.838Z,15.10
2018-04-23T05:25:33.363Z,15.10
2018-04-23T05:26:35.913Z,15.10
2018-04-23T05:27:38.439Z,15.10
2018-04-23T05:28:41.018Z,15.10
2018-04-23T05:29:44.312Z,15.10
2018-04-23T05:30:47.610Z,15.10
2018-04-23T05:31:50.133Z,15.10
2018-04-23T05:32:52.673Z,15.10
2018-04-23T05:33:56.016Z,15.10
2018-04-23T05:34:59.315Z,15.10
2018-04-23T05:36:01.844Z,15.10
2018-04-23T05:37:04.371Z,15.10
2018-04-23T05:38:06.897Z,15.20
2018-04-23T05:39:10.215Z,15.20
2018-04-23T05:40:12.745Z,15.20
2018-04-23T05:41:16.045Z,15.20
2018-04-23T05:42:18.574Z,15.20
2018-04-23T05:43:21.105Z,15.20
2018-04-23T05:44:23.671Z,15.20
2018-04-23T05:45:26.224Z,15.20
2018-04-23T05:46:28.761Z,15.20
2018-04-23T05:47:31.331Z,15.10
2018-04-23T05:48:34.668Z,15.20
2018-04-23T05:49:37.243Z,15.20
2018-04-23T05:50:39.767Z,15.20
2018-04-23T05:51:42.296Z,15.30
2018-04-23T05:52:45.600Z,15.30
2018-04-23T05:53:48.915Z,15.40
2018-04-23T05:54:51.439Z,15.40
2018-04-23T05:55:54.905Z,15.40
2018-04-23T05:56:57.443Z,15.40
2018-04-23T05:58:00.776Z,15.40
2018-04-23T05:59:04.087Z,15.40
2018-04-23T06:00:06.634Z,15.40
2018-04-23T06:01:09.933Z,15.50
2018-04-23T06:02:12.468Z,15.40
2018-04-23T06:03:15.806Z,15.60
2018-04-23T06:04:18.334Z,15.60
2018-04-23T06:05:21.638Z,15.60
2018-04-23T06:06:24.164Z,15.60
2018-04-23T06:07:26.701Z,15.60
2018-04-23T06:08:29.269Z,15.50
2018-04-23T06:09:31.826Z,15.50
2018-04-23T06:10:34.349Z,15.60
2018-04-23T06:11:37.638Z,15.60
2018-04-23T06:12:40.173Z,15.60
2018-04-23T06:13:42.712Z,15.70
2018-04-23T06:14:45.274Z,15.70
2018-04-23T06:15:47.857Z,15.60
2018-04-23T06:16:50.403Z,15.70
2018-04-23T06:17:52.934Z,15.70
2018-04-23T06:18:55.473Z,15.70
2018-04-23T06:19:58.004Z,15.70
2018-04-23T06:21:01.335Z,15.70
2018-04-23T06:22:03.864Z,15.70
2018-04-23T06:23:06.408Z,15.70
2018-04-23T06:24:08.932Z,15.60
2018-04-23T06:25:12.259Z,15.60
2018-04-23T06:26:14.784Z,15.60
2018-04-23T06:27:18.082Z,15.60
2018-04-23T06:28:21.370Z,15.70
2018-04-23T06:29:23.901Z,15.60
2018-04-23T06:30:26.465Z,15.70
2018-04-23T06:31:29.000Z,15.70
2018-04-23T06:32:31.525Z,15.80
2018-04-23T06:33:34.822Z,15.90
2018-04-23T06:34:37.356Z,15.80
2018-04-23T06:35:39.927Z,15.90
2018-04-23T06:36:42.456Z,15.90
2018-04-23T06:37:44.983Z,16.00
2018-04-23T06:38:47.509Z,16.00
2018-04-23T06:39:50.054Z,16.00
2018-04-23T06:40:52.607Z,15.90
2018-04-23T06:41:55.130Z,15.90
2018-04-23T06:42:58.430Z,15.90
2018-04-23T06:44:00.968Z,15.90
2018-04-23T06:45:03.496Z,15.90
2018-04-23T06:46:06.090Z,16.00
2018-04-23T06:47:08.621Z,16.00
2018-04-23T06:48:11.140Z,16.00
2018-04-23T06:49:14.436Z,16.00
2018-04-23T06:50:17.729Z,16.10
2018-04-23T06:51:20.351Z,16.10
2018-04-23T06:52:22.873Z,16.10
2018-04-23T06:53:25.406Z,16.10
2018-04-23T06:54:28.701Z,16.10
2018-04-23T06:55:32.032Z,16.10
2018-04-23T06:56:34.591Z,16.10
2018-04-23T06:57:37.155Z,16.10
2018-04-23T06:58:39.715Z,16.20
2018-04-23T06:59:42.233Z,16.20
2018-04-23T07:00:44.765Z,16.10
2018-04-23T07:01:47.331Z,16.20
2018-04-23T07:02:49.885Z,16.20
2018-04-23T07:03:52.404Z,16.20
2018-04-23T07:04:54.942Z,16.20
2018-04-23T07:05:57.479Z,16.30
2018-04-23T07:07:00.005Z,16.30
2018-04-23T07:08:02.580Z,16.20
2018-04-23T07:09:06.660Z,16.20
2018-04-23T07:10:09.185Z,16.20
2018-04-23T07:11:11.722Z,16.30
2018-04-23T07:12:14.262Z,16.30
2018-04-23T07:13:16.830Z,16.30
2018-04-23T07:14:19.397Z,16.30
2018-04-23T07:15:21.916Z,16.30
2018-04-23T07:16:24.458Z,16.30
2018-04-23T07:17:26.987Z,16.30
2018-04-23T07:18:29.527Z,16.30
2018-04-23T07:19:32.100Z,16.30
2018-04-23T07:20:34.629Z,16.30
2018-04-23T07:21:37.153Z,16.30
2018-04-23T07:22:39.684Z,16.30
2018-04-23T07:23:42.244Z,16.40
2018-04-23T07:24:44.791Z,16.40
2018-04-23T07:25:47.320Z,16.40
2018-04-23T07:26:49.884Z,16.40
2018-04-23T07:27:52.423Z,16.50
2018-04-23T07:28:54.954Z,16.40
2018-04-23T07:29:57.479Z,16.40
2018-04-23T07:31:00.007Z,16.40
2018-04-23T07:32:02.602Z,16.40
2018-04-23T07:33:05.128Z,16.40
2018-04-23T07:34:07.664Z,16.40
2018-04-23T07:35:10.974Z,16.60
2018-04-23T07:36:13.541Z,16.50
2018-04-23T07:37:16.064Z,16.60
2018-04-23T07:38:18.588Z,16.70
2018-04-23T07:39:21.108Z,16.80
2018-04-23T07:40:23.639Z,16.70
2018-04-23T07:41:26.213Z,16.70
2018-04-23T07:42:28.789Z,16.70
2018-04-23T07:43:31.314Z,16.60
2018-04-23T07:44:33.851Z,16.70
2018-04-23T07:45:37.144Z,16.80
2018-04-23T07:46:40.467Z,16.80
2018-04-23T07:47:42.992Z,16.80
2018-04-23T07:48:46.278Z,16.90
2018-04-23T07:49:48.806Z,16.90
2018-04-23T07:50:51.335Z,16.90
2018-04-23T07:51:53.905Z,16.90
2018-04-23T07:52:56.424Z,16.90
2018-04-23T07:53:58.951Z,16.90
2018-04-23T07:55:01.473Z,17.00
2018-04-23T07:56:04.036Z,16.90
2018-04-23T07:57:07.368Z,17.10
2018-04-23T07:58:09.900Z,17.10
2018-04-23T07:59:12.433Z,17.20
2018-04-23T08:00:14.952Z,17.20
2018-04-23T08:01:17.489Z,17.20
2018-04-23T08:02:20.816Z,17.60
2018-04-23T08:03:23.357Z,17.60
2018-04-23T08:04:25.885Z,17.70
2018-04-23T08:05:28.440Z,17.80
2018-04-23T08:06:30.991Z,17.90
2018-04-23T08:07:33.517Z,17.90
2018-04-23T08:08:36.106Z,17.90
2018-04-23T08:09:38.643Z,17.80
2018-04-23T08:10:41.172Z,17.80
2018-04-23T08:11:43.699Z,17.80
2018-04-23T08:12:46.230Z,17.90
2018-04-23T08:13:49.562Z,18.00
2018-04-23T08:14:52.096Z,18.00
2018-04-23T08:15:54.622Z,18.00
2018-04-23T08:16:57.189Z,18.00
2018-04-23T08:17:59.722Z,18.10
2018-04-23T08:19:02.281Z,18.10
2018-04-23T08:20:04.816Z,18.10
2018-04-23T08:21:08.110Z,18.10
2018-04-23T08:22:10.641Z,18.10
2018-04-23T08:23:13.177Z,18.20
2018-04-23T08:24:15.741Z,18.20
2018-04-23T08:25:18.277Z,18.30
2018-04-23T08:26:20.813Z,18.30
2018-04-23T08:27:24.108Z,18.40
2018-04-23T08:28:27.411Z,18.40
2018-04-23T08:29:29.959Z,18.40
2018-04-23T08:30:33.255Z,18.40
2018-04-23T08:31:35.823Z,18.40
2018-04-23T08:32:38.381Z,18.30
2018-04-23T08:33:41.680Z,18.30
2018-04-23T08:34:44.212Z,18.20
2018-04-23T08:35:46.742Z,18.10
2018-04-23T08:36:49.318Z,18.10
2018-04-23T08:37:51.847Z,18.00
2018-04-23T08:38:54.371Z,18.00
2018-04-23T08:39:56.937Z,17.90
2018-04-23T08:40:59.473Z,17.80
2018-04-23T08:42:02.005Z,17.70
2018-04-23T08:43:04.559Z,17.70
2018-04-23T08:44:07.856Z,17.70
2018-04-23T08:45:10.431Z,17.70
2018-04-23T08:46:12.962Z,17.80
2018-04-23T08:47:15.505Z,17.80
2018-04-23T08:48:18.036Z,17.80
2018-04-23T08:49:20.559Z,17.80
2018-04-23T08:50:23.157Z,17.90
2018-04-23T08:51:26.428Z,17.90
2018-04-23T08:52:29.715Z,18.00
2018-04-23T08:53:33.010Z,18.00
2018-04-23T08:54:35.532Z,18.00
2018-04-23T08:55:38.088Z,18.20
2018-04-23T08:56:40.649Z,18.20
2018-04-23T08:57:43.167Z,18.40
2018-04-23T08:58:45.693Z,18.50
2018-04-23T08:59:48.223Z,18.70
2018-04-23T09:00:50.739Z,18.90
2018-04-23T09:01:53.300Z,19.00
2018-04-23T09:02:55.823Z,19.20
2018-04-23T09:03:58.351Z,19.30
2018-04-23T09:05:00.936Z,19.50
2018-04-23T09:06:03.475Z,19.50
2018-04-23T09:07:06.772Z,19.50
2018-04-23T09:08:10.072Z,19.50
2018-04-23T09:09:12.597Z,19.50
2018-04-23T09:10:15.204Z,19.50
2018-04-23T09:11:18.475Z,19.50
2018-04-23T09:12:21.804Z,19.40
2018-04-23T09:13:24.332Z,19.30
2018-04-23T09:14:26.886Z,19.30
2018-04-23T09:15:30.185Z,19.20
2018-04-23T09:16:32.754Z,19.20
2018-04-23T09:17:35.299Z,19.10
2018-04-23T09:18:38.640Z,19.00
2018-04-23T09:19:41.168Z,19.00
2018-04-23T09:20:43.697Z,19.10
2018-04-23T09:21:46.232Z,19.20
2018-04-23T09:22:48.802Z,19.10
2018-04-23T09:23:51.418Z,19.10
2018-04-23T09:24:54.761Z,19.40
2018-04-23T09:25:57.264Z,19.40
2018-04-23T09:27:00.567Z,19.60
2018-04-23T09:28:03.136Z,19.50
2018-04-23T09:29:05.696Z,19.70
2018-04-23T09:30:08.229Z,19.90
2018-04-23T09:31:10.770Z,20.00
2018-04-23T09:32:13.339Z,20.10
2018-04-23T09:33:15.873Z,19.90
2018-04-23T09:34:18.439Z,19.80
2018-04-23T09:35:20.968Z,19.90
2018-04-23T09:36:23.536Z,19.70
2018-04-23T09:37:26.847Z,19.70
2018-04-23T09:38:29.389Z,19.60
2018-04-23T09:39:32.695Z,19.50
2018-04-23T09:40:35.223Z,19.50
2018-04-23T09:41:37.783Z,19.50
2018-04-23T09:42:40.350Z,19.70
2018-04-23T09:43:44.385Z,19.80
2018-04-23T09:44:47.677Z,20.00
2018-04-23T09:45:50.974Z,20.10
2018-04-23T09:46:53.510Z,20.10
2018-04-23T09:47:56.084Z,20.20
2018-04-23T09:48:58.632Z,20.30
2018-04-23T09:50:01.167Z,20.40
2018-04-23T09:51:03.703Z,20.50
2018-04-23T09:52:06.243Z,20.70
2018-04-23T09:53:09.580Z,20.60
2018-04-23T09:54:12.120Z,20.60
2018-04-23T09:55:14.694Z,20.60
2018-04-23T09:56:17.225Z,20.30
2018-04-23T09:57:20.532Z,20.10
2018-04-23T09:58:23.064Z,20.00
2018-04-23T09:59:25.648Z,19.90
2018-04-23T10:00:30.891Z,19.70
2018-04-23T10:01:33.423Z,19.60
2018-04-23T10:02:35.962Z,19.70
2018-04-23T10:03:42.376Z,19.50
2018-04-23T10:04:45.709Z,19.60
2018-04-23T10:05:48.239Z,19.50
2018-04-23T10:06:50.768Z,19.60
2018-04-23T10:07:53.312Z,19.60
2018-04-23T10:08:55.882Z,19.60
2018-04-23T10:09:58.415Z,19.50
2018-04-23T10:11:00.960Z,19.50
2018-04-23T10:12:04.264Z,19.50
2018-04-23T10:13:06.830Z,19.50
2018-04-23T10:14:09.375Z,19.50
2018-04-23T10:15:11.943Z,19.40
2018-04-23T10:16:15.237Z,19.40
2018-04-23T10:17:17.763Z,19.30
2018-04-23T10:18:20.295Z,19.50
2018-04-23T10:19:22.819Z,19.40
2018-04-23T10:20:26.151Z,19.40
2018-04-23T10:21:28.685Z,19.30
2018-04-23T10:22:31.252Z,19.40
2018-04-23T10:23:33.780Z,19.60
2018-04-23T10:24:36.316Z,19.60
2018-04-23T10:25:38.852Z,19.80
2018-04-23T10:26:41.432Z,19.90
2018-04-23T10:27:43.964Z,19.90
2018-04-23T10:28:47.265Z,20.20
2018-04-23T10:29:49.804Z,20.10
2018-04-23T10:30:53.107Z,20.50
2018-04-23T10:31:56.436Z,20.80
2018-04-23T10:32:58.964Z,20.80
2018-04-23T10:34:01.507Z,20.80
2018-04-23T10:35:04.031Z,20.90
2018-04-23T10:36:06.565Z,20.70
2018-04-23T10:37:09.123Z,20.60
2018-04-23T10:38:11.670Z,20.90
2018-04-23T10:39:14.978Z,21.10
2018-04-23T10:40:17.506Z,21.10
2018-04-23T10:41:20.036Z,21.10
2018-04-23T10:42:22.607Z,21.00
2018-04-23T10:43:25.177Z,21.00
2018-04-23T10:44:27.704Z,21.10
2018-04-23T10:45:30.279Z,21.20
2018-04-23T10:46:32.821Z,20.90
2018-04-23T10:47:35.400Z,20.80
2018-04-23T10:48:38.736Z,20.50
2018-04-23T10:49:41.273Z,20.40
2018-04-23T10:50:43.807Z,20.30
2018-04-23T10:51:46.341Z,20.40
2018-04-23T10:52:48.900Z,20.10
2018-04-23T10:53:51.479Z,20.00
2018-04-23T10:54:54.019Z,19.90
2018-04-23T10:55:56.550Z,19.90
2018-04-23T10:56:59.884Z,19.80
2018-04-23T10:58:02.421Z,19.80
2018-04-23T10:59:04.965Z,19.90
2018-04-23T11:00:08.290Z,20.10
2018-04-23T11:01:10.840Z,20.10
2018-04-23T11:02:13.367Z,20.40
2018-04-23T11:03:16.672Z,20.40
2018-04-23T11:04:20.017Z,20.40
2018-04-23T11:05:22.550Z,20.40
2018-04-23T11:06:25.081Z,20.40
2018-04-23T11:07:28.383Z,20.50
2018-04-23T11:08:30.913Z,20.40
2018-04-23T11:09:33.479Z,20.50
2018-04-23T11:10:36.023Z,20.60
2018-04-23T11:11:38.559Z,20.70
2018-04-23T11:12:41.123Z,20.70
2018-04-23T11:13:43.696Z,20.90
2018-04-23T11:14:46.232Z,20.80
2018-04-23T11:15:49.567Z,21.10
2018-04-23T11:16:52.084Z,21.00
2018-04-23T11:17:55.420Z,20.90
2018-04-23T11:18:57.955Z,20.90
2018-04-23T11:20:00.542Z,20.80
2018-04-23T11:21:03.052Z,20.60
2018-04-23T11:22:06.360Z,20.50
2018-04-23T11:23:08.927Z,20.50
2018-04-23T11:24:11.464Z,20.50
2018-04-23T11:25:14.009Z,20.40
2018-04-23T11:26:16.572Z,20.20
2018-04-23T11:27:19.100Z,20.40
2018-04-23T11:28:21.751Z,20.40
2018-04-23T11:29:25.057Z,20.30
2018-04-23T11:30:27.596Z,20.20
2018-04-23T11:31:30.939Z,20.30
2018-04-23T11:32:34.295Z,20.30
2018-04-23T11:33:37.616Z,20.40
2018-04-23T11:34:40.195Z,20.40
2018-04-23T11:35:42.737Z,20.40
2018-04-23T11:36:45.273Z,20.30
2018-04-23T11:37:47.849Z,20.30
2018-04-23T11:38:50.383Z,20.40
2018-04-23T11:39:53.715Z,20.50
2018-04-23T11:40:56.280Z,20.40
2018-04-23T11:41:58.801Z,20.60
2018-04-23T11:43:02.114Z,20.60
2018-04-23T11:44:04.648Z,20.60
2018-04-23T11:45:07.949Z,20.60
2018-04-23T11:46:10.524Z,20.60
2018-04-23T11:47:13.063Z,20.50
2018-04-23T11:48:16.369Z,20.80
2018-04-23T11:49:18.903Z,20.80
2018-04-23T11:50:21.464Z,20.70
2018-04-23T11:51:23.996Z,20.70
2018-04-23T11:52:26.559Z,20.90
2018-04-23T11:53:29.084Z,20.80
2018-04-23T11:54:32.389Z,20.80
2018-04-23T11:55:34.924Z,20.80
2018-04-23T11:56:37.456Z,20.80
2018-04-23T11:57:40.062Z,20.80
2018-04-23T11:58:43.371Z,21.10
2018-04-23T11:59:45.895Z,21.00
2018-04-23T12:00:48.419Z,21.10
2018-04-23T12:01:50.957Z,21.10
2018-04-23T12:02:54.284Z,21.00
2018-04-23T12:03:56.831Z,21.00
2018-04-23T12:04:59.364Z,21.10
2018-04-23T12:06:02.673Z,21.30
2018-04-23T12:07:05.207Z,21.30
2018-04-23T12:08:07.780Z,21.40
2018-04-23T12:09:11.087Z,21.30
2018-04-23T12:10:13.621Z,21.30
2018-04-23T12:11:16.160Z,21.20
2018-04-23T12:12:18.693Z,21.30
2018-04-23T12:13:21.260Z,21.10
2018-04-23T12:14:23.798Z,20.90
2018-04-23T12:15:27.108Z,20.90
2018-04-23T12:16:29.643Z,20.80
2018-04-23T12:17:32.939Z,20.80
2018-04-23T12:18:36.261Z,20.70
2018-04-23T12:19:38.835Z,20.70
2018-04-23T12:20:41.369Z,20.80
2018-04-23T12:21:43.942Z,20.70
2018-04-23T12:22:47.219Z,20.70
2018-04-23T12:23:49.752Z,20.70
2018-04-23T12:24:52.326Z,20.60
2018-04-23T12:25:54.846Z,20.60
2018-04-23T12:26:57.381Z,20.60
2018-04-23T12:27:59.915Z,20.70
2018-04-23T12:29:02.444Z,20.90
2018-04-23T12:30:05.015Z,21.10
2018-04-23T12:31:07.589Z,21.20
2018-04-23T12:32:10.124Z,21.20
2018-04-23T12:33:12.662Z,21.40
2018-04-23T12:34:15.977Z,21.70
2018-04-23T12:35:18.536Z,21.60
2018-04-23T12:36:21.089Z,21.70
2018-04-23T12:37:24.404Z,21.40
2018-04-23T12:38:26.933Z,21.30
2018-04-23T12:39:30.216Z,21.40
2018-04-23T12:40:33.540Z,21.30
2018-04-23T12:41:36.075Z,21.30
2018-04-23T12:42:39.400Z,21.30
2018-04-23T12:43:41.953Z,21.30
2018-04-23T12:44:44.476Z,21.20
2018-04-23T12:45:47.004Z,21.20
2018-04-23T12:46:49.525Z,21.30
2018-04-23T12:47:52.864Z,21.00
2018-04-23T12:48:55.401Z,21.00
2018-04-23T12:49:57.961Z,21.20
2018-04-23T12:51:00.576Z,21.30
2018-04-23T12:52:03.091Z,21.20
2018-04-23T12:53:05.628Z,21.30
2018-04-23T12:54:08.913Z,21.60
2018-04-23T12:55:12.236Z,21.50
2018-04-23T12:56:14.761Z,21.50
2018-04-23T12:57:17.291Z,21.70
2018-04-23T12:58:19.817Z,21.80
2018-04-23T12:59:22.427Z,21.80
2018-04-23T13:00:24.993Z,21.80
2018-04-23T13:01:27.528Z,21.40
2018-04-23T13:02:30.061Z,21.50
2018-04-23T13:03:32.597Z,21.60
2018-04-23T13:04:35.127Z,21.60
2018-04-23T13:05:37.686Z,21.50
2018-04-23T13:06:40.254Z,21.60
2018-04-23T13:07:42.781Z,21.60
2018-04-23T13:08:45.308Z,21.60
2018-04-23T13:09:47.891Z,21.60
2018-04-23T13:10:50.425Z,21.50
2018-04-23T13:11:52.998Z,21.30
2018-04-23T13:12:55.562Z,21.40
2018-04-23T13:13:58.093Z,21.30
2018-04-23T13:15:01.378Z,21.30
2018-04-23T13:16:04.673Z,21.20
2018-04-23T13:17:07.964Z,20.80
2018-04-23T13:18:10.529Z,20.80
2018-04-23T13:19:13.052Z,20.60
2018-04-23T13:20:15.608Z,20.70
2018-04-23T13:21:18.128Z,20.70
2018-04-23T13:22:20.657Z,20.80
2018-04-23T13:23:23.220Z,20.90
2018-04-23T13:24:25.735Z,21.20
2018-04-23T13:25:28.287Z,21.40
2018-04-23T13:26:31.566Z,21.30
2018-04-23T13:27:34.857Z,21.40
2018-04-23T13:28:38.139Z,21.30
2018-04-23T13:29:41.476Z,21.10